Las Cruces, New Mexico
Current Conditions -  °F | °C
As of 1:35 PM on Thursday 27 Nov 2014 (Local Time) from KLRU Reporting Station
Clear Clear  
Wind Chill: 66°   Ceiling: Unl
Heat Index: 66°   Visibility: 10mi
Dew Point: 22°   Wind: 3mph
Humidity: 19%   Direction: 180°S
Pressure: 30.34"   Gusts: NA
Location:  32.31°N, 106.77°W
Report Text: KLRU 272035Z AUTO 18003KT 10SM CLR 19/M05 A3034 RMK AO2 T01871054
Loading
Personal Weather Stations






























Interactive Weather Map New forecast layout! Learn more

10-Day Weather Forecast

Advertisements
Track Severe Weather on mobile